Herval d'Oeste, Brazil
Current Conditions -  °F | °C
As of 1:00 PM on Tuesday 21 Oct 2014 (Local Time) from SBCH Reporting Station
Few Clouds Few Clouds  
Wind Chill: 75°   Ceiling: Unl
Heat Index: 75°   Visibility: 6mi
Dew Point: 59°   Wind: 5mph
Humidity: 57%   Direction: 140°SE
Pressure: 30.15"   Gusts: NA
Location:  27.19°S, 51.49°W
Report Text: SBCH 211500Z 14004KT 9999 FEW030 24/15 Q1021
Loading
Personal Weather Stations






























Interactive Weather Map
Tropical Storm Tracking
New forecast layout! Learn more

10-Day Weather Forecast

Advertisements
Track Severe Weather on mobile